Nor Easter — V7HF2 — position and weather

sailwx.info

Track history (hours):
 
Tides and Currents Weather Stations Pressure Air Temp Water Temp Dewpoint Dewpoint Depression Visibility Wind Speed Wind Dir Waves Ship Positions

Nor Easter

Last reported at 2014-Aug-17 17:33 UTC. Time now 2014-Aug-23 13:27 UTC.
Position N 42°26' W 070°45'.

Length 181 m; draft 7.3 m.

Type: Ship. MMSI: 538002219.

Date/timePositionNaut miles runAvg speedWind from/ knotsBaromVisibWave heightAir tempDewpointWater temp
2014-Aug-17 17:33N 42°26' W 070°45'11 2.0
2014-Aug-17 12:04N 42°20' W 070°58'0 0.0
2014-Aug-17 11:31N 42°20' W 070°58'3 3.4
2014-Aug-17 10:33N 42°21' W 071°02'3 2.6
2014-Aug-17 09:32N 42°24' W 071°01'0 0.0
2014-Aug-17 08:32N 42°24' W 071°01'0 0.0
2014-Aug-17 07:32N 42°24' W 071°01'4 0.2
2014-Aug-16 07:25N 42°20' W 070°58'  
2014-Aug-13 03:33N 43°36' W 069°56'1312.4
2014-Aug-13 02:32N 43°38' W 070°13'2 0.2
2014-Aug-12 13:33N 43°39' W 070°16'0 0.0
2014-Aug-12 01:26N 43°38' W 070°16'0 0.0
2014-Aug-11 23:26N 43°38' W 070°16'1 0.4
2014-Aug-11 21:20N 43°38' W 070°17'0 0.0
2014-Aug-11 20:32N 43°38' W 070°17'0 0.0
2014-Aug-11 19:32N 43°38' W 070°17'0 0.0
2014-Aug-11 18:26N 43°38' W 070°17'0 0.0
2014-Aug-11 12:12N 43°38' W 070°17'2 3.4
2014-Aug-11 11:33N 43°40' W 070°14'8 8.5
2014-Aug-11 10:33N 43°37' W 070°03'4511.2
2014-Aug-11 06:33N 43°20' W 069°06'1210.6
2014-Aug-11 05:27N 43°19' W 068°50'  
2014-Aug-08 14:28N 43°37' W 069°50'1213.3
2014-Aug-08 13:33N 43°37' W 070°07'6 5.8
2014-Aug-08 12:33N 43°39' W 070°14'0 0.0
2014-Aug-08 11:33N 43°39' W 070°14'0 0.0
2014-Aug-08 10:31N 43°39' W 070°14'0 0.0
2014-Aug-08 09:33N 43°39' W 070°14'0 0.0
2014-Aug-08 08:33N 43°39' W 070°14'0 0.0
2014-Aug-08 07:33N 43°39' W 070°14'0 0.0
2014-Aug-08 06:33N 43°39' W 070°14'0 0.0
2014-Aug-08 05:33N 43°39' W 070°14'0 0.0
2014-Aug-08 04:33N 43°39' W 070°14'0 0.0
2014-Aug-08 03:33N 43°39' W 070°14'0 0.0
2014-Aug-08 02:33N 43°39' W 070°14'  
Track history (hours):
 
Tides and Currents Weather Stations Pressure Air Temp Water Temp Dewpoint Dewpoint Depression Visibility Wind Speed Wind Dir Waves Ship Positions

Nor Easter

Last reported at 2014-Aug-17 17:33 UTC. Time now 2014-Aug-23 13:27 UTC.
Position N 42°26' W 070°45'.

Length 181 m; draft 7.3 m.

Type: Ship. MMSI: 538002219.

Date/timePositionNaut miles runAvg speedWind from/ knotsBaromVisibWave heightAir tempDewpointWater temp
2014-Aug-17 17:33N 42°26' W 070°45'11 2.0
2014-Aug-17 12:04N 42°20' W 070°58'0 0.0
2014-Aug-17 11:31N 42°20' W 070°58'3 3.4
2014-Aug-17 10:33N 42°21' W 071°02'3 2.6
2014-Aug-17 09:32N 42°24' W 071°01'0 0.0
2014-Aug-17 08:32N 42°24' W 071°01'0 0.0
2014-Aug-17 07:32N 42°24' W 071°01'4 0.2
2014-Aug-16 07:25N 42°20' W 070°58'  
2014-Aug-13 03:33N 43°36' W 069°56'1312.4
2014-Aug-13 02:32N 43°38' W 070°13'2 0.2
2014-Aug-12 13:33N 43°39' W 070°16'0 0.0
2014-Aug-12 01:26N 43°38' W 070°16'0 0.0
2014-Aug-11 23:26N 43°38' W 070°16'1 0.4
2014-Aug-11 21:20N 43°38' W 070°17'0 0.0
2014-Aug-11 20:32N 43°38' W 070°17'0 0.0
2014-Aug-11 19:32N 43°38' W 070°17'0 0.0
2014-Aug-11 18:26N 43°38' W 070°17'0 0.0
2014-Aug-11 12:12N 43°38' W 070°17'2 3.4
2014-Aug-11 11:33N 43°40' W 070°14'8 8.5
2014-Aug-11 10:33N 43°37' W 070°03'4511.2
2014-Aug-11 06:33N 43°20' W 069°06'1210.6
2014-Aug-11 05:27N 43°19' W 068°50'  
2014-Aug-08 14:28N 43°37' W 069°50'1213.3
2014-Aug-08 13:33N 43°37' W 070°07'6 5.8
2014-Aug-08 12:33N 43°39' W 070°14'0 0.0
2014-Aug-08 11:33N 43°39' W 070°14'0 0.0
2014-Aug-08 10:31N 43°39' W 070°14'0 0.0
2014-Aug-08 09:33N 43°39' W 070°14'0 0.0
2014-Aug-08 08:33N 43°39' W 070°14'0 0.0
2014-Aug-08 07:33N 43°39' W 070°14'0 0.0
2014-Aug-08 06:33N 43°39' W 070°14'0 0.0
2014-Aug-08 05:33N 43°39' W 070°14'0 0.0
2014-Aug-08 04:33N 43°39' W 070°14'0 0.0
2014-Aug-08 03:33N 43°39' W 070°14'0 0.0
2014-Aug-08 02:33N 43°39' W 070°14'  

Dump ship's entire track history